Manoel Vitorino, Brazil
Current Conditions -  °F | °C
As of 3:00 PM on Sunday 23 Nov 2014 (Local Time) from SBQV Reporting Station
Light Rain Light Rain  
Wind Chill: 81°   Ceiling: Unl
Heat Index: 83°   Visibility: 6mi
Dew Point: 68°   Wind: 7mph
Humidity: 65%   Direction: 340°NNW
Pressure: 30"   Gusts: NA
Location:  14.15°S, 40.24°W
Report Text: SBQV 231800Z 34006KT 9999 -RA FEW018TCU SCT020 27/20 Q1016
Loading
Personal Weather Stations






























Interactive Weather Map New forecast layout! Learn more

10-Day Weather Forecast

Advertisements
Track Severe Weather on mobile